Seaspan Saigon — VRBT7 — position and weather

sailwx.info

Track history (hours):
 
Tides and Currents Weather Stations Pressure Air Temp Water Temp Dewpoint Dewpoint Depression Visibility Wind Speed Wind Dir Waves Ship Positions

Seaspan Saigon

Last reported at 2017-Feb-22 01:25 UTC. Time now 2017-Feb-22 01:34 UTC.
Position N 19°13' W 095°31'.

Length 260 m; draft 12.5 m.

Type: Ship (hazmat cat A). MMSI: 477106800.

Date/timePositionNaut miles runAvg speedWind from/ knotsBaromVisibWave heightAir tempDewpointWater temp
2017-Feb-22 01:25N 19°13' W 095°31'2 1.9
2017-Feb-22 00:33N 19°12' W 095°30'7 1.1
2017-Feb-21 18:10N 19°05' W 095°28'11 2.7
2017-Feb-21 14:03N 19°15' W 095°31'  
2017-Feb-15 21:20N 25°38' W 079°30'1316.5
2017-Feb-15 20:33N 25°47' W 079°41'1212.5
2017-Feb-15 19:33N 25°55' W 079°51'1212.0
2017-Feb-15 18:33N 26°04' W 079°59'7 6.6
2017-Feb-15 17:33N 26°05' W 080°07'0 0.2
2017-Feb-15 16:24N 26°04' W 080°07'0 0.0
2017-Feb-15 15:27N 26°04' W 080°07'0 0.0
2017-Feb-15 14:27N 26°04' W 080°07'0 0.0
2017-Feb-15 13:27N 26°04' W 080°07'0 0.0
2017-Feb-15 12:27N 26°04' W 080°07'0 0.0
2017-Feb-15 11:27N 26°04' W 080°07'0 0.0
2017-Feb-15 10:30N 26°04' W 080°07'0 0.0
2017-Feb-15 09:30N 26°04' W 080°07'0 0.0
2017-Feb-15 08:30N 26°04' W 080°07'0 0.0
2017-Feb-15 07:30N 26°04' W 080°07'0 0.0
2017-Feb-15 06:30N 26°04' W 080°07'0 0.0
2017-Feb-15 05:33N 26°04' W 080°07'1 0.7
2017-Feb-15 04:34N 26°05' W 080°07'5 4.8
2017-Feb-15 03:33N 26°06' W 080°02'4 4.2
2017-Feb-15 02:33N 26°08' W 079°58'6 6.2
2017-Feb-15 01:33N 26°14' W 079°55'1 1.1
2017-Feb-15 00:33N 26°14' W 079°53'5 4.6
2017-Feb-14 23:33N 26°09' W 079°53'5 4.6
2017-Feb-14 22:34N 26°05' W 079°54'3 3.0
2017-Feb-14 21:34N 26°02' W 079°54'9 8.6
2017-Feb-14 20:34N 26°06' W 079°45'1111.2
2017-Feb-14 19:34N 26°07' W 079°33'1111.1
2017-Feb-14 18:33N 26°11' W 079°21'  
Track history (hours):
 
Tides and Currents Weather Stations Pressure Air Temp Water Temp Dewpoint Dewpoint Depression Visibility Wind Speed Wind Dir Waves Ship Positions

Seaspan Saigon

Last reported at 2017-Feb-22 01:25 UTC. Time now 2017-Feb-22 01:34 UTC.
Position N 19°13' W 095°31'.

Length 260 m; draft 12.5 m.

Type: Ship (hazmat cat A). MMSI: 477106800.

Date/timePositionNaut miles runAvg speedWind from/ knotsBaromVisibWave heightAir tempDewpointWater temp
2017-Feb-22 01:25N 19°13' W 095°31'2 1.9
2017-Feb-22 00:33N 19°12' W 095°30'7 1.1
2017-Feb-21 18:10N 19°05' W 095°28'11 2.7
2017-Feb-21 14:03N 19°15' W 095°31'  
2017-Feb-15 21:20N 25°38' W 079°30'1316.5
2017-Feb-15 20:33N 25°47' W 079°41'1212.5
2017-Feb-15 19:33N 25°55' W 079°51'1212.0
2017-Feb-15 18:33N 26°04' W 079°59'7 6.6
2017-Feb-15 17:33N 26°05' W 080°07'0 0.2
2017-Feb-15 16:24N 26°04' W 080°07'0 0.0
2017-Feb-15 15:27N 26°04' W 080°07'0 0.0
2017-Feb-15 14:27N 26°04' W 080°07'0 0.0
2017-Feb-15 13:27N 26°04' W 080°07'0 0.0
2017-Feb-15 12:27N 26°04' W 080°07'0 0.0
2017-Feb-15 11:27N 26°04' W 080°07'0 0.0
2017-Feb-15 10:30N 26°04' W 080°07'0 0.0
2017-Feb-15 09:30N 26°04' W 080°07'0 0.0
2017-Feb-15 08:30N 26°04' W 080°07'0 0.0
2017-Feb-15 07:30N 26°04' W 080°07'0 0.0
2017-Feb-15 06:30N 26°04' W 080°07'0 0.0
2017-Feb-15 05:33N 26°04' W 080°07'1 0.7
2017-Feb-15 04:34N 26°05' W 080°07'5 4.8
2017-Feb-15 03:33N 26°06' W 080°02'4 4.2
2017-Feb-15 02:33N 26°08' W 079°58'6 6.2
2017-Feb-15 01:33N 26°14' W 079°55'1 1.1
2017-Feb-15 00:33N 26°14' W 079°53'5 4.6
2017-Feb-14 23:33N 26°09' W 079°53'5 4.6
2017-Feb-14 22:34N 26°05' W 079°54'3 3.0
2017-Feb-14 21:34N 26°02' W 079°54'9 8.6
2017-Feb-14 20:34N 26°06' W 079°45'1111.2
2017-Feb-14 19:34N 26°07' W 079°33'1111.1
2017-Feb-14 18:33N 26°11' W 079°21'  

Dump ship's entire track history